Fredericksburg, Indiana
Current Conditions -  °F | °C
As of 5:56 PM on Thursday 27 Nov 2014 (Local Time) from KSDF Reporting Station
Broken Clouds Broken Clouds  
Wind Chill: 19°   Ceiling: 2900
Heat Index: 30°   Visibility: 9mi
Dew Point: 20°   Wind: 15mph
Humidity: 66%   Direction: 300°WNW
Pressure: 30.43"   Gusts: 23mph
Location:  38.43°N, 86.19°W
Report Text: KSDF 272256Z 30013G20KT 9SM BKN029 M01/M07 A3043 RMK AO2 SLP308 T10111067
Loading
Personal Weather Stations






























Interactive Weather Map New forecast layout! Learn more

10-Day Weather Forecast

Advertisements
Track Severe Weather on mobile